createdAt,value
2022-12-19T00:01:42.808Z,98371.59
2022-12-19T00:06:45.226Z,98358.22
2022-12-19T00:11:47.521Z,98365.91
2022-12-19T00:16:49.272Z,98355.69
2022-12-19T00:21:51.159Z,98343.16
2022-12-19T00:26:52.728Z,98328.06
2022-12-19T00:31:54.808Z,98314.50
2022-12-19T00:36:56.472Z,98297.19
2022-12-19T00:41:58.073Z,98287.00
2022-12-19T00:46:59.630Z,98304.44
2022-12-19T00:52:01.439Z,98313.97
2022-12-19T00:57:05.078Z,98309.00
2022-12-19T01:02:06.731Z,98320.38
2022-12-19T01:07:10.555Z,98318.72
2022-12-19T01:12:30.894Z,98306.63
2022-12-19T01:17:43.609Z,98315.34
2022-12-19T01:22:47.163Z,98295.91
2022-12-19T01:27:48.912Z,98300.56
2022-12-19T01:32:50.425Z,98310.25
2022-12-19T01:38:03.323Z,98316.88
2022-12-19T01:43:14.069Z,98322.94
2022-12-19T01:48:16.069Z,98334.91
2022-12-19T01:53:19.473Z,98320.13
2022-12-19T01:58:21.698Z,98319.72
2022-12-19T02:03:31.293Z,98317.66
2022-12-19T02:08:32.978Z,98311.28
2022-12-19T02:13:36.831Z,98316.66
2022-12-19T02:18:44.310Z,98322.91
2022-12-19T02:24:04.828Z,98321.44
2022-12-19T02:29:36.484Z,98310.41
2022-12-19T02:34:53.101Z,98312.06
2022-12-19T02:39:58.699Z,98321.78
2022-12-19T02:45:02.468Z,98329.50
2022-12-19T02:50:05.262Z,98319.09
2022-12-19T02:55:09.625Z,98314.38
2022-12-19T03:00:17.760Z,98314.06
2022-12-19T03:05:38.461Z,98317.91
2022-12-19T03:10:45.900Z,98317.75
2022-12-19T03:15:49.800Z,98318.78
2022-12-19T03:20:51.727Z,98314.97
2022-12-19T03:25:55.159Z,98264.34
2022-12-19T03:30:58.606Z,98323.75
2022-12-19T03:36:03.768Z,98345.94
2022-12-19T03:41:07.078Z,98367.47
2022-12-19T03:46:15.174Z,98325.00
2022-12-19T03:51:29.024Z,98343.19
2022-12-19T03:56:30.665Z,98300.97
2022-12-19T04:01:34.262Z,98305.00
2022-12-19T04:06:36.756Z,98278.19
2022-12-19T04:11:47.166Z,98300.31
2022-12-19T04:16:57.189Z,98300.31
2022-12-19T04:22:07.503Z,98318.91
2022-12-19T04:27:09.839Z,98226.94
2022-12-19T04:32:11.944Z,98338.78
2022-12-19T04:37:13.643Z,98335.63
2022-12-19T04:42:15.206Z,98284.09
2022-12-19T04:47:16.966Z,98312.47
2022-12-19T04:52:18.952Z,98304.47
2022-12-19T04:57:20.622Z,98289.06
2022-12-19T05:02:22.370Z,98341.69
2022-12-19T05:07:24.173Z,98334.13
2022-12-19T05:12:25.761Z,98343.50
2022-12-19T05:17:27.387Z,98313.56
2022-12-19T05:22:29.380Z,98339.78
2022-12-19T05:27:30.984Z,98316.47
2022-12-19T05:32:33.728Z,98334.09
2022-12-19T05:37:35.332Z,98309.31
2022-12-19T05:42:37.084Z,98328.25
2022-12-19T05:47:38.714Z,98298.59
2022-12-19T05:52:40.542Z,98338.69
2022-12-19T05:57:42.420Z,98332.47
2022-12-19T06:02:44.231Z,98324.47
2022-12-19T06:07:46.517Z,98324.66
2022-12-19T06:12:48.211Z,98337.91
2022-12-19T06:17:53.208Z,98333.25
2022-12-19T06:22:55.029Z,98332.38
2022-12-19T06:27:56.667Z,98319.84
2022-12-19T06:32:58.295Z,98304.41
2022-12-19T06:38:01.100Z,98320.56
2022-12-19T06:43:02.789Z,98311.59
2022-12-19T06:48:04.559Z,98324.81
2022-12-19T06:53:06.394Z,98331.34
2022-12-19T06:58:08.011Z,98336.38
2022-12-19T07:03:11.321Z,98329.78
2022-12-19T07:08:12.938Z,98347.94
2022-12-19T07:13:14.626Z,98342.19
2022-12-19T07:18:16.336Z,98323.97
2022-12-19T07:23:19.635Z,98325.34
2022-12-19T07:28:21.391Z,98319.78
2022-12-19T07:33:22.986Z,98306.34
2022-12-19T07:38:24.602Z,98296.97
2022-12-19T07:43:26.251Z,98299.69
2022-12-19T07:48:28.837Z,98293.97
2022-12-19T07:53:32.259Z,98312.06
2022-12-19T07:58:33.880Z,98310.75
2022-12-19T08:03:35.952Z,98311.72
2022-12-19T08:08:37.886Z,98320.47
2022-12-19T08:13:46.358Z,98307.38
2022-12-19T08:18:48.955Z,98306.19
2022-12-19T08:23:50.936Z,98295.25
2022-12-19T08:28:56.304Z,98289.53
2022-12-19T08:33:58.256Z,98297.25
2022-12-19T08:39:00.141Z,98289.50
2022-12-19T08:44:02.196Z,98277.56
2022-12-19T08:49:04.097Z,98278.72
2022-12-19T08:54:07.878Z,98279.22
2022-12-19T08:59:15.973Z,98268.13
2022-12-19T09:05:57.906Z,98277.00
2022-12-19T09:09:46.519Z,98290.25
2022-12-19T09:14:48.190Z,98317.31
2022-12-19T09:19:49.819Z,98306.00
2022-12-19T09:24:51.396Z,98298.72
2022-12-19T09:29:52.975Z,98289.75
2022-12-19T09:34:54.821Z,98289.53
2022-12-19T09:39:58.893Z,98265.63
2022-12-19T09:45:01.244Z,98260.72
2022-12-19T09:50:03.106Z,98245.91
2022-12-19T09:55:11.727Z,98243.97
2022-12-19T10:00:19.206Z,98244.94
2022-12-19T10:06:33.141Z,98242.19
2022-12-19T10:12:46.144Z,98256.41
2022-12-19T10:17:23.704Z,98244.66
2022-12-19T10:22:27.972Z,98235.94
2022-12-19T10:27:29.542Z,98231.41
2022-12-19T10:32:55.188Z,98231.69
2022-12-19T10:38:07.756Z,98249.00
2022-12-19T10:43:32.775Z,98246.22
2022-12-19T10:48:35.554Z,98225.22
2022-12-19T10:53:37.255Z,98213.81
2022-12-19T10:58:42.109Z,98192.31
2022-12-19T11:03:46.808Z,98201.81
2022-12-19T11:08:48.668Z,98205.28
2022-12-19T11:20:30.710Z,98183.31
2022-12-19T11:29:25.219Z,98186.56
2022-12-19T11:30:45.651Z,98167.22
2022-12-19T11:33:14.002Z,98145.88
2022-12-19T11:38:20.065Z,98148.19
2022-12-19T11:43:52.672Z,98129.19
2022-12-19T11:49:05.808Z,98133.34
2022-12-19T11:54:15.995Z,98132.16
2022-12-19T11:59:20.708Z,98123.69
2022-12-19T12:04:37.848Z,98114.44
2022-12-19T12:14:53.230Z,98129.41
2022-12-19T12:27:34.748Z,98109.66
2022-12-19T12:31:21.962Z,98105.56
2022-12-19T12:31:57.233Z,98107.50
2022-12-19T12:35:48.604Z,98112.13
2022-12-19T12:38:30.776Z,98097.25
2022-12-19T12:43:46.438Z,98111.06
2022-12-19T12:49:05.231Z,98112.59
2022-12-19T12:54:12.591Z,98106.53
2022-12-19T12:59:27.233Z,98099.03
2022-12-19T13:04:35.777Z,98085.31
2022-12-19T13:09:37.637Z,98077.59
2022-12-19T13:14:39.310Z,98087.78
2022-12-19T13:19:56.313Z,98070.28
2022-12-19T13:24:59.587Z,98061.56
2022-12-19T13:30:01.332Z,98064.00
2022-12-19T13:35:32.877Z,98059.88
2022-12-19T13:40:51.426Z,98064.88
2022-12-19T13:46:01.216Z,98067.84
2022-12-19T13:51:10.721Z,98076.41
2022-12-19T13:56:15.220Z,98085.03
2022-12-19T14:01:33.319Z,98097.56
2022-12-19T14:06:44.608Z,98100.50
2022-12-19T14:13:37.512Z,98091.81
2022-12-19T14:17:21.183Z,98089.75
2022-12-19T14:22:26.925Z,98078.28
2022-12-19T14:28:26.483Z,98096.56
2022-12-19T14:33:43.767Z,98093.00
2022-12-19T14:39:20.322Z,98081.78
2022-12-19T14:52:26.128Z,98077.16
2022-12-19T14:54:11.539Z,98065.88
2022-12-19T14:56:19.742Z,98071.19
2022-12-19T15:01:09.070Z,98068.63
2022-12-19T15:07:05.792Z,98056.94
2022-12-19T15:14:04.075Z,98048.97
2022-12-19T15:17:45.192Z,98058.03
2022-12-19T15:22:47.346Z,98060.03
2022-12-19T15:27:48.986Z,98066.22
2022-12-19T15:32:50.727Z,98051.03
2022-12-19T15:37:52.979Z,98064.09
2022-12-19T15:42:57.286Z,98055.16
2022-12-19T15:47:59.445Z,98043.06
2022-12-19T15:53:34.526Z,98041.16
2022-12-19T15:58:41.910Z,98044.22
2022-12-19T16:03:43.790Z,98046.53
2022-12-19T16:08:45.781Z,98053.53
2022-12-19T16:13:52.564Z,98063.13
2022-12-19T16:18:54.302Z,98050.72
2022-12-19T16:23:55.992Z,98043.47
2022-12-19T16:28:58.021Z,98044.47
2022-12-19T16:34:00.341Z,98063.31
2022-12-19T16:39:02.000Z,98070.81
2022-12-19T16:44:18.762Z,98078.13
2022-12-19T16:49:24.974Z,98078.88
2022-12-19T16:54:27.042Z,98070.91
2022-12-19T16:59:35.753Z,98040.00
2022-12-19T17:04:41.837Z,98022.94
2022-12-19T17:09:44.462Z,98025.31
2022-12-19T17:14:46.309Z,98017.22
2022-12-19T17:19:48.073Z,98012.44
2022-12-19T17:24:49.855Z,98001.28
2022-12-19T17:29:51.565Z,98003.59
2022-12-19T17:34:53.430Z,98014.19
2022-12-19T17:39:55.351Z,98012.16
2022-12-19T17:44:57.236Z,98026.19
2022-12-19T17:49:59.255Z,98025.81
2022-12-19T17:55:22.130Z,98018.00
2022-12-19T18:00:30.382Z,98018.00
2022-12-19T18:05:35.925Z,98017.44
2022-12-19T18:10:37.761Z,98003.75
2022-12-19T18:15:40.692Z,97986.44
2022-12-19T18:20:44.155Z,97992.88
2022-12-19T18:25:46.940Z,97987.28
2022-12-19T18:30:49.355Z,97978.16
2022-12-19T18:35:51.537Z,97988.94
2022-12-19T18:40:53.233Z,97982.94
2022-12-19T18:45:55.628Z,97975.84
2022-12-19T18:50:58.996Z,97972.72
2022-12-19T18:56:06.013Z,97971.88
2022-12-19T19:01:15.417Z,97976.38
2022-12-19T19:06:21.370Z,97973.41
2022-12-19T19:11:24.942Z,98006.44
2022-12-19T19:16:27.758Z,97998.34
2022-12-19T19:21:33.397Z,98001.28
2022-12-19T19:26:35.167Z,98003.97
2022-12-19T19:31:40.714Z,98009.13
2022-12-19T19:36:47.089Z,98024.00
2022-12-19T19:41:48.855Z,98007.75
2022-12-19T19:46:50.757Z,97994.84
2022-12-19T19:51:56.949Z,98001.56
2022-12-19T19:57:04.179Z,98025.25
2022-12-19T20:02:08.365Z,98025.28
2022-12-19T20:07:10.312Z,98019.53
2022-12-19T20:12:12.196Z,98006.34
2022-12-19T20:17:14.002Z,97996.41
2022-12-19T20:22:15.722Z,97996.78
2022-12-19T20:27:17.371Z,98004.19
2022-12-19T20:32:19.488Z,97996.78
2022-12-19T20:37:21.296Z,97987.84
2022-12-19T20:42:23.323Z,97988.69
2022-12-19T20:47:25.035Z,98002.16
2022-12-19T20:52:26.986Z,97985.63
2022-12-19T20:57:30.449Z,97986.47
2022-12-19T21:02:52.527Z,97988.59
2022-12-19T21:07:53.923Z,97975.75
2022-12-19T21:12:56.125Z,97975.50
2022-12-19T21:17:57.799Z,97972.16
2022-12-19T21:22:59.882Z,97987.28
2022-12-19T21:28:01.712Z,97970.09
2022-12-19T21:33:04.052Z,97979.59
2022-12-19T21:38:05.756Z,97972.75
2022-12-19T21:43:11.741Z,97976.72
2022-12-19T21:48:14.212Z,97977.94
2022-12-19T21:53:15.909Z,97973.66
2022-12-19T21:58:17.603Z,97964.19
2022-12-19T22:03:19.375Z,97976.06
2022-12-19T22:08:21.173Z,97977.00
2022-12-19T22:13:23.019Z,97966.31
2022-12-19T22:18:27.402Z,97962.59
2022-12-19T22:23:29.175Z,97969.09
2022-12-19T22:28:34.256Z,97973.38
2022-12-19T22:33:35.967Z,97966.84
2022-12-19T22:38:46.284Z,97966.03
2022-12-19T22:43:48.355Z,97975.13
2022-12-19T22:48:50.728Z,97972.44
2022-12-19T22:53:52.567Z,97960.38
2022-12-19T22:58:56.567Z,97962.16
2022-12-19T23:04:00.238Z,97962.59
2022-12-19T23:09:03.435Z,97954.31
2022-12-19T23:14:07.211Z,97936.69
2022-12-19T23:19:09.632Z,97945.50
2022-12-19T23:24:11.713Z,97942.91
2022-12-19T23:29:14.904Z,97943.38
2022-12-19T23:34:17.324Z,97940.59
2022-12-19T23:39:19.021Z,97931.47
2022-12-19T23:44:20.718Z,97937.34
2022-12-19T23:49:22.389Z,97940.94
2022-12-19T23:54:24.221Z,97939.28
2022-12-19T23:59:26.485Z,97934.91
